sensor_id;sensor_type;location;lat;lon;timestamp;P1;durP1;ratioP1;P2;durP2;ratioP2
55069;SDS011;40967;52.070;8.596;2023-06-26T00:01:28;1.80;;;1.10;;
55069;SDS011;40967;52.070;8.596;2023-06-26T00:03:57;2.13;;;1.25;;
55069;SDS011;40967;52.070;8.596;2023-06-26T00:06:24;1.40;;;1.00;;
55069;SDS011;40967;52.070;8.596;2023-06-26T00:08:51;1.60;;;1.10;;
55069;SDS011;40967;52.070;8.596;2023-06-26T00:11:18;1.55;;;1.10;;
55069;SDS011;40967;52.070;8.596;2023-06-26T00:13:44;1.50;;;1.00;;
55069;SDS011;40967;52.070;8.596;2023-06-26T00:16:09;1.77;;;1.20;;
55069;SDS011;40967;52.070;8.596;2023-06-26T00:18:35;1.87;;;1.20;;
55069;SDS011;40967;52.070;8.596;2023-06-26T00:21:00;2.57;;;1.30;;
55069;SDS011;40967;52.070;8.596;2023-06-26T00:23:26;2.30;;;1.50;;
55069;SDS011;40967;52.070;8.596;2023-06-26T00:25:52;2.30;;;1.50;;
55069;SDS011;40967;52.070;8.596;2023-06-26T00:28:18;2.40;;;1.40;;
55069;SDS011;40967;52.070;8.596;2023-06-26T00:30:44;2.38;;;1.50;;
55069;SDS011;40967;52.070;8.596;2023-06-26T00:33:09;3.10;;;1.60;;
55069;SDS011;40967;52.070;8.596;2023-06-26T00:35:34;1.90;;;1.23;;
55069;SDS011;40967;52.070;8.596;2023-06-26T00:38:00;2.28;;;1.30;;
55069;SDS011;40967;52.070;8.596;2023-06-26T00:40:26;2.22;;;1.35;;
55069;SDS011;40967;52.070;8.596;2023-06-26T00:42:53;2.10;;;1.38;;
55069;SDS011;40967;52.070;8.596;2023-06-26T00:45:19;2.10;;;1.33;;
55069;SDS011;40967;52.070;8.596;2023-06-26T00:47:44;2.33;;;1.45;;
55069;SDS011;40967;52.070;8.596;2023-06-26T00:50:10;2.47;;;1.50;;
55069;SDS011;40967;52.070;8.596;2023-06-26T00:52:36;2.20;;;1.33;;
55069;SDS011;40967;52.070;8.596;2023-06-26T00:55:02;2.08;;;1.30;;
55069;SDS011;40967;52.070;8.596;2023-06-26T00:57:29;2.63;;;1.63;;
55069;SDS011;40967;52.070;8.596;2023-06-26T00:59:56;2.30;;;1.40;;
55069;SDS011;40967;52.070;8.596;2023-06-26T01:02:22;2.20;;;1.40;;
55069;SDS011;40967;52.070;8.596;2023-06-26T01:04:50;2.60;;;1.50;;
55069;SDS011;40967;52.070;8.596;2023-06-26T01:07:17;2.40;;;1.60;;
55069;SDS011;40967;52.070;8.596;2023-06-26T01:09:46;2.10;;;1.42;;
55069;SDS011;40967;52.070;8.596;2023-06-26T01:12:13;2.90;;;1.70;;
55069;SDS011;40967;52.070;8.596;2023-06-26T01:14:39;2.55;;;1.55;;
55069;SDS011;40967;52.070;8.596;2023-06-26T01:17:04;1.95;;;1.23;;
55069;SDS011;40967;52.070;8.596;2023-06-26T01:19:31;2.10;;;1.15;;
55069;SDS011;40967;52.070;8.596;2023-06-26T01:27:45;2.08;;;1.40;;
55069;SDS011;40967;52.070;8.596;2023-06-26T01:30:13;2.70;;;1.70;;
55069;SDS011;40967;52.070;8.596;2023-06-26T01:32:40;2.97;;;1.65;;
55069;SDS011;40967;52.070;8.596;2023-06-26T01:35:07;2.42;;;1.45;;
55069;SDS011;40967;52.070;8.596;2023-06-26T01:37:34;2.60;;;1.55;;
55069;SDS011;40967;52.070;8.596;2023-06-26T01:40:00;2.43;;;1.53;;
55069;SDS011;40967;52.070;8.596;2023-06-26T01:42:25;3.00;;;1.83;;
55069;SDS011;40967;52.070;8.596;2023-06-26T01:44:52;2.50;;;1.63;;
55069;SDS011;40967;52.070;8.596;2023-06-26T01:47:21;2.75;;;1.75;;
55069;SDS011;40967;52.070;8.596;2023-06-26T01:49:55;2.80;;;1.80;;
55069;SDS011;40967;52.070;8.596;2023-06-26T01:52:29;2.80;;;1.70;;
55069;SDS011;40967;52.070;8.596;2023-06-26T01:54:58;2.85;;;1.80;;
55069;SDS011;40967;52.070;8.596;2023-06-26T01:57:30;2.95;;;1.80;;
55069;SDS011;40967;52.070;8.596;2023-06-26T01:59:57;2.53;;;1.70;;
55069;SDS011;40967;52.070;8.596;2023-06-26T02:02:24;2.45;;;1.60;;
55069;SDS011;40967;52.070;8.596;2023-06-26T02:04:50;2.75;;;1.80;;
55069;SDS011;40967;52.070;8.596;2023-06-26T02:07:15;3.03;;;1.80;;
55069;SDS011;40967;52.070;8.596;2023-06-26T02:09:41;2.93;;;1.73;;
55069;SDS011;40967;52.070;8.596;2023-06-26T02:12:06;3.50;;;2.10;;
55069;SDS011;40967;52.070;8.596;2023-06-26T02:14:32;3.08;;;2.00;;
55069;SDS011;40967;52.070;8.596;2023-06-26T02:16:58;3.15;;;2.00;;
55069;SDS011;40967;52.070;8.596;2023-06-26T02:19:25;3.47;;;2.07;;
55069;SDS011;40967;52.070;8.596;2023-06-26T02:21:53;3.35;;;2.00;;
55069;SDS011;40967;52.070;8.596;2023-06-26T02:24:18;3.05;;;1.90;;
55069;SDS011;40967;52.070;8.596;2023-06-26T02:26:44;3.10;;;1.90;;
55069;SDS011;40967;52.070;8.596;2023-06-26T02:29:10;3.10;;;1.92;;
55069;SDS011;40967;52.070;8.596;2023-06-26T02:31:36;2.78;;;1.80;;
55069;SDS011;40967;52.070;8.596;2023-06-26T02:34:02;2.88;;;1.90;;
55069;SDS011;40967;52.070;8.596;2023-06-26T02:36:27;2.67;;;1.80;;
55069;SDS011;40967;52.070;8.596;2023-06-26T02:38:53;2.70;;;1.70;;
55069;SDS011;40967;52.070;8.596;2023-06-26T02:41:18;2.67;;;1.60;;
55069;SDS011;40967;52.070;8.596;2023-06-26T02:43:43;3.07;;;1.80;;
55069;SDS011;40967;52.070;8.596;2023-06-26T02:46:09;2.87;;;1.60;;
55069;SDS011;40967;52.070;8.596;2023-06-26T02:48:34;3.13;;;1.70;;
55069;SDS011;40967;52.070;8.596;2023-06-26T02:51:03;3.10;;;1.80;;
55069;SDS011;40967;52.070;8.596;2023-06-26T02:53:28;2.90;;;1.83;;
55069;SDS011;40967;52.070;8.596;2023-06-26T02:55:53;3.23;;;2.07;;
55069;SDS011;40967;52.070;8.596;2023-06-26T02:58:19;2.73;;;1.73;;
55069;SDS011;40967;52.070;8.596;2023-06-26T03:00:44;3.38;;;2.00;;
55069;SDS011;40967;52.070;8.596;2023-06-26T03:03:10;2.80;;;1.90;;
55069;SDS011;40967;52.070;8.596;2023-06-26T03:05:35;3.10;;;1.80;;
55069;SDS011;40967;52.070;8.596;2023-06-26T03:08:02;3.13;;;1.90;;
55069;SDS011;40967;52.070;8.596;2023-06-26T03:10:27;3.38;;;1.95;;
55069;SDS011;40967;52.070;8.596;2023-06-26T03:12:53;3.13;;;1.87;;
55069;SDS011;40967;52.070;8.596;2023-06-26T03:15:18;2.63;;;1.60;;
55069;SDS011;40967;52.070;8.596;2023-06-26T03:17:44;3.20;;;2.00;;
55069;SDS011;40967;52.070;8.596;2023-06-26T03:20:09;2.17;;;1.50;;
55069;SDS011;40967;52.070;8.596;2023-06-26T03:22:35;2.63;;;1.60;;
55069;SDS011;40967;52.070;8.596;2023-06-26T03:25:01;3.00;;;1.73;;
55069;SDS011;40967;52.070;8.596;2023-06-26T03:27:27;2.40;;;1.40;;
55069;SDS011;40967;52.070;8.596;2023-06-26T03:29:53;2.70;;;1.63;;
55069;SDS011;40967;52.070;8.596;2023-06-26T03:32:19;2.55;;;1.50;;
55069;SDS011;40967;52.070;8.596;2023-06-26T03:34:44;2.57;;;1.50;;
55069;SDS011;40967;52.070;8.596;2023-06-26T03:37:10;2.73;;;1.60;;
55069;SDS011;40967;52.070;8.596;2023-06-26T03:39:35;2.80;;;1.70;;
55069;SDS011;40967;52.070;8.596;2023-06-26T03:42:01;2.17;;;1.55;;
55069;SDS011;40967;52.070;8.596;2023-06-26T03:44:27;3.50;;;1.70;;
55069;SDS011;40967;52.070;8.596;2023-06-26T03:46:53;2.47;;;1.70;;
55069;SDS011;40967;52.070;8.596;2023-06-26T03:49:19;3.20;;;1.80;;
55069;SDS011;40967;52.070;8.596;2023-06-26T03:51:45;2.63;;;1.60;;
55069;SDS011;40967;52.070;8.596;2023-06-26T03:54:10;2.65;;;1.75;;
55069;SDS011;40967;52.070;8.596;2023-06-26T03:56:36;2.93;;;1.80;;
55069;SDS011;40967;52.070;8.596;2023-06-26T03:59:01;3.20;;;1.83;;
55069;SDS011;40967;52.070;8.596;2023-06-26T04:01:27;2.72;;;1.85;;
55069;SDS011;40967;52.070;8.596;2023-06-26T04:03:53;2.40;;;1.70;;
55069;SDS011;40967;52.070;8.596;2023-06-26T04:06:19;2.90;;;1.73;;
55069;SDS011;40967;52.070;8.596;2023-06-26T04:08:44;2.45;;;1.50;;
55069;SDS011;40967;52.070;8.596;2023-06-26T04:11:10;2.88;;;1.80;;
55069;SDS011;40967;52.070;8.596;2023-06-26T04:13:35;2.80;;;1.80;;
55069;SDS011;40967;52.070;8.596;2023-06-26T04:16:01;2.53;;;1.60;;
55069;SDS011;40967;52.070;8.596;2023-06-26T04:18:26;2.40;;;1.50;;
55069;SDS011;40967;52.070;8.596;2023-06-26T04:23:34;2.40;;;1.60;;
55069;SDS011;40967;52.070;8.596;2023-06-26T04:26:00;2.95;;;1.70;;
55069;SDS011;40967;52.070;8.596;2023-06-26T04:28:25;2.63;;;1.70;;
55069;SDS011;40967;52.070;8.596;2023-06-26T04:30:51;2.80;;;1.57;;
55069;SDS011;40967;52.070;8.596;2023-06-26T04:33:16;3.17;;;2.00;;
55069;SDS011;40967;52.070;8.596;2023-06-26T04:35:42;2.90;;;1.88;;
55069;SDS011;40967;52.070;8.596;2023-06-26T04:38:09;2.35;;;1.50;;
55069;SDS011;40967;52.070;8.596;2023-06-26T04:40:35;2.92;;;1.70;;
55069;SDS011;40967;52.070;8.596;2023-06-26T04:43:01;2.60;;;1.67;;
55069;SDS011;40967;52.070;8.596;2023-06-26T04:45:26;2.10;;;1.40;;
55069;SDS011;40967;52.070;8.596;2023-06-26T04:47:51;2.50;;;1.50;;
55069;SDS011;40967;52.070;8.596;2023-06-26T04:50:17;2.53;;;1.50;;
55069;SDS011;40967;52.070;8.596;2023-06-26T04:52:44;2.30;;;1.38;;
55069;SDS011;40967;52.070;8.596;2023-06-26T04:55:09;2.53;;;1.58;;
55069;SDS011;40967;52.070;8.596;2023-06-26T04:57:34;2.22;;;1.33;;
55069;SDS011;40967;52.070;8.596;2023-06-26T05:00:00;2.27;;;1.43;;
55069;SDS011;40967;52.070;8.596;2023-06-26T05:02:25;2.33;;;1.40;;
55069;SDS011;40967;52.070;8.596;2023-06-26T05:04:51;1.98;;;1.20;;
55069;SDS011;40967;52.070;8.596;2023-06-26T05:07:17;1.93;;;1.20;;
55069;SDS011;40967;52.070;8.596;2023-06-26T05:09:42;1.97;;;1.23;;
55069;SDS011;40967;52.070;8.596;2023-06-26T05:12:08;2.27;;;1.40;;
55069;SDS011;40967;52.070;8.596;2023-06-26T05:14:33;1.85;;;1.30;;
55069;SDS011;40967;52.070;8.596;2023-06-26T05:17:02;2.03;;;1.30;;
55069;SDS011;40967;52.070;8.596;2023-06-26T05:19:27;2.28;;;1.40;;
55069;SDS011;40967;52.070;8.596;2023-06-26T05:21:52;1.97;;;1.20;;
55069;SDS011;40967;52.070;8.596;2023-06-26T05:24:19;1.90;;;1.23;;
55069;SDS011;40967;52.070;8.596;2023-06-26T05:26:45;2.28;;;1.35;;
55069;SDS011;40967;52.070;8.596;2023-06-26T05:29:10;2.50;;;1.50;;
55069;SDS011;40967;52.070;8.596;2023-06-26T05:31:37;2.37;;;1.50;;
55069;SDS011;40967;52.070;8.596;2023-06-26T05:34:09;3.05;;;1.92;;
55069;SDS011;40967;52.070;8.596;2023-06-26T05:36:35;3.80;;;2.17;;
55069;SDS011;40967;52.070;8.596;2023-06-26T05:39:01;3.53;;;2.13;;
55069;SDS011;40967;52.070;8.596;2023-06-26T05:41:27;3.60;;;1.98;;
55069;SDS011;40967;52.070;8.596;2023-06-26T05:43:53;3.60;;;2.10;;
55069;SDS011;40967;52.070;8.596;2023-06-26T05:46:19;3.50;;;2.10;;
55069;SDS011;40967;52.070;8.596;2023-06-26T05:48:45;3.60;;;2.25;;
55069;SDS011;40967;52.070;8.596;2023-06-26T05:51:10;2.83;;;1.73;;
55069;SDS011;40967;52.070;8.596;2023-06-26T05:53:36;4.50;;;2.80;;
55069;SDS011;40967;52.070;8.596;2023-06-26T05:56:01;4.17;;;2.33;;
55069;SDS011;40967;52.070;8.596;2023-06-26T05:58:27;3.75;;;2.17;;
55069;SDS011;40967;52.070;8.596;2023-06-26T06:00:53;4.75;;;2.40;;
55069;SDS011;40967;52.070;8.596;2023-06-26T06:03:18;5.90;;;3.40;;
55069;SDS011;40967;52.070;8.596;2023-06-26T06:05:43;5.53;;;3.30;;
55069;SDS011;40967;52.070;8.596;2023-06-26T06:08:09;5.00;;;3.17;;
55069;SDS011;40967;52.070;8.596;2023-06-26T06:10:34;4.80;;;2.90;;
55069;SDS011;40967;52.070;8.596;2023-06-26T06:13:00;4.90;;;3.45;;
55069;SDS011;40967;52.070;8.596;2023-06-26T06:15:25;4.97;;;3.40;;
55069;SDS011;40967;52.070;8.596;2023-06-26T06:17:50;4.40;;;3.00;;
55069;SDS011;40967;52.070;8.596;2023-06-26T06:20:16;6.43;;;3.60;;
55069;SDS011;40967;52.070;8.596;2023-06-26T06:22:44;9.88;;;5.88;;
55069;SDS011;40967;52.070;8.596;2023-06-26T06:25:10;5.77;;;3.73;;
55069;SDS011;40967;52.070;8.596;2023-06-26T06:27:35;6.77;;;3.77;;
55069;SDS011;40967;52.070;8.596;2023-06-26T06:30:00;7.37;;;4.40;;
55069;SDS011;40967;52.070;8.596;2023-06-26T06:32:28;6.32;;;4.30;;
55069;SDS011;40967;52.070;8.596;2023-06-26T06:34:53;5.80;;;3.80;;
55069;SDS011;40967;52.070;8.596;2023-06-26T06:37:19;4.53;;;2.90;;
55069;SDS011;40967;52.070;8.596;2023-06-26T06:39:44;4.47;;;2.47;;
55069;SDS011;40967;52.070;8.596;2023-06-26T06:42:09;4.22;;;2.80;;
55069;SDS011;40967;52.070;8.596;2023-06-26T06:44:35;3.60;;;2.50;;
55069;SDS011;40967;52.070;8.596;2023-06-26T06:47:00;4.60;;;2.57;;
55069;SDS011;40967;52.070;8.596;2023-06-26T06:49:25;6.60;;;3.93;;
55069;SDS011;40967;52.070;8.596;2023-06-26T06:51:51;5.47;;;3.40;;
55069;SDS011;40967;52.070;8.596;2023-06-26T06:54:16;8.27;;;4.90;;
55069;SDS011;40967;52.070;8.596;2023-06-26T06:56:42;7.40;;;5.20;;
55069;SDS011;40967;52.070;8.596;2023-06-26T06:59:08;6.55;;;4.65;;
55069;SDS011;40967;52.070;8.596;2023-06-26T07:01:34;6.20;;;3.75;;
55069;SDS011;40967;52.070;8.596;2023-06-26T07:04:02;9.15;;;5.60;;
55069;SDS011;40967;52.070;8.596;2023-06-26T07:06:29;7.20;;;4.40;;
55069;SDS011;40967;52.070;8.596;2023-06-26T07:08:54;8.77;;;5.20;;
55069;SDS011;40967;52.070;8.596;2023-06-26T07:11:20;5.43;;;4.00;;
55069;SDS011;40967;52.070;8.596;2023-06-26T07:13:45;6.17;;;4.27;;
55069;SDS011;40967;52.070;8.596;2023-06-26T07:16:11;4.73;;;3.60;;
55069;SDS011;40967;52.070;8.596;2023-06-26T07:18:37;4.43;;;3.00;;
55069;SDS011;40967;52.070;8.596;2023-06-26T07:21:03;5.20;;;3.47;;
55069;SDS011;40967;52.070;8.596;2023-06-26T07:23:29;6.05;;;3.83;;
55069;SDS011;40967;52.070;8.596;2023-06-26T07:25:55;4.78;;;3.33;;
55069;SDS011;40967;52.070;8.596;2023-06-26T07:28:20;4.43;;;2.93;;
55069;SDS011;40967;52.070;8.596;2023-06-26T07:30:46;5.77;;;3.70;;
55069;SDS011;40967;52.070;8.596;2023-06-26T07:33:11;6.33;;;4.27;;
55069;SDS011;40967;52.070;8.596;2023-06-26T07:35:37;7.43;;;5.20;;
55069;SDS011;40967;52.070;8.596;2023-06-26T07:38:03;9.30;;;5.13;;
55069;SDS011;40967;52.070;8.596;2023-06-26T07:40:28;5.77;;;4.20;;
55069;SDS011;40967;52.070;8.596;2023-06-26T07:42:53;5.40;;;3.70;;
55069;SDS011;40967;52.070;8.596;2023-06-26T07:45:19;6.20;;;3.90;;
55069;SDS011;40967;52.070;8.596;2023-06-26T07:47:45;6.03;;;4.10;;
55069;SDS011;40967;52.070;8.596;2023-06-26T07:50:11;6.10;;;3.75;;
55069;SDS011;40967;52.070;8.596;2023-06-26T07:52:36;8.75;;;5.18;;
55069;SDS011;40967;52.070;8.596;2023-06-26T07:55:02;6.50;;;4.23;;
55069;SDS011;40967;52.070;8.596;2023-06-26T07:57:29;5.50;;;3.47;;
55069;SDS011;40967;52.070;8.596;2023-06-26T07:59:55;4.60;;;3.08;;
55069;SDS011;40967;52.070;8.596;2023-06-26T08:02:20;6.30;;;4.35;;
55069;SDS011;40967;52.070;8.596;2023-06-26T08:04:46;8.00;;;4.68;;
55069;SDS011;40967;52.070;8.596;2023-06-26T08:07:11;3.97;;;2.97;;
55069;SDS011;40967;52.070;8.596;2023-06-26T08:09:38;5.70;;;4.05;;
55069;SDS011;40967;52.070;8.596;2023-06-26T08:12:04;6.40;;;4.30;;
55069;SDS011;40967;52.070;8.596;2023-06-26T08:14:30;6.60;;;4.80;;
55069;SDS011;40967;52.070;8.596;2023-06-26T08:16:56;6.95;;;4.50;;
55069;SDS011;40967;52.070;8.596;2023-06-26T08:19:22;6.10;;;4.30;;
55069;SDS011;40967;52.070;8.596;2023-06-26T08:21:47;7.63;;;5.20;;
55069;SDS011;40967;52.070;8.596;2023-06-26T08:24:13;7.97;;;4.83;;
55069;SDS011;40967;52.070;8.596;2023-06-26T08:26:42;6.45;;;4.05;;
55069;SDS011;40967;52.070;8.596;2023-06-26T08:29:08;6.40;;;4.00;;
55069;SDS011;40967;52.070;8.596;2023-06-26T08:31:36;7.10;;;4.53;;
55069;SDS011;40967;52.070;8.596;2023-06-26T08:34:02;5.47;;;3.90;;
55069;SDS011;40967;52.070;8.596;2023-06-26T08:36:29;8.48;;;5.30;;
55069;SDS011;40967;52.070;8.596;2023-06-26T08:38:54;8.20;;;4.70;;
55069;SDS011;40967;52.070;8.596;2023-06-26T08:41:19;7.00;;;4.23;;
55069;SDS011;40967;52.070;8.596;2023-06-26T08:43:45;6.13;;;3.67;;
55069;SDS011;40967;52.070;8.596;2023-06-26T08:46:11;4.57;;;3.20;;
55069;SDS011;40967;52.070;8.596;2023-06-26T08:48:37;4.63;;;3.10;;
55069;SDS011;40967;52.070;8.596;2023-06-26T08:51:09;4.03;;;2.70;;
55069;SDS011;40967;52.070;8.596;2023-06-26T08:56:40;7.38;;;3.67;;
55069;SDS011;40967;52.070;8.596;2023-06-26T08:59:08;7.05;;;4.00;;
55069;SDS011;40967;52.070;8.596;2023-06-26T09:01:35;8.40;;;4.43;;
55069;SDS011;40967;52.070;8.596;2023-06-26T09:04:01;10.10;;;4.78;;
55069;SDS011;40967;52.070;8.596;2023-06-26T09:06:27;7.97;;;4.30;;
55069;SDS011;40967;52.070;8.596;2023-06-26T09:08:53;6.75;;;4.00;;
55069;SDS011;40967;52.070;8.596;2023-06-26T09:11:18;7.10;;;4.07;;
55069;SDS011;40967;52.070;8.596;2023-06-26T09:13:43;8.20;;;4.37;;
55069;SDS011;40967;52.070;8.596;2023-06-26T09:16:09;6.55;;;4.03;;
55069;SDS011;40967;52.070;8.596;2023-06-26T09:18:35;7.55;;;4.60;;
55069;SDS011;40967;52.070;8.596;2023-06-26T09:21:05;6.53;;;3.80;;
55069;SDS011;40967;52.070;8.596;2023-06-26T09:23:32;8.38;;;4.20;;
55069;SDS011;40967;52.070;8.596;2023-06-26T09:25:58;11.03;;;5.80;;
55069;SDS011;40967;52.070;8.596;2023-06-26T09:28:24;6.87;;;4.00;;
55069;SDS011;40967;52.070;8.596;2023-06-26T09:30:49;7.17;;;4.00;;
55069;SDS011;40967;52.070;8.596;2023-06-26T09:33:18;7.18;;;4.10;;
55069;SDS011;40967;52.070;8.596;2023-06-26T09:35:45;6.70;;;3.80;;
55069;SDS011;40967;52.070;8.596;2023-06-26T09:38:11;6.95;;;3.92;;
55069;SDS011;40967;52.070;8.596;2023-06-26T09:40:37;8.30;;;4.03;;
55069;SDS011;40967;52.070;8.596;2023-06-26T09:43:07;6.57;;;3.42;;
55069;SDS011;40967;52.070;8.596;2023-06-26T09:45:33;5.85;;;3.13;;
55069;SDS011;40967;52.070;8.596;2023-06-26T09:48:06;7.22;;;3.70;;
55069;SDS011;40967;52.070;8.596;2023-06-26T09:50:36;6.97;;;3.47;;
55069;SDS011;40967;52.070;8.596;2023-06-26T09:53:09;5.53;;;3.35;;
55069;SDS011;40967;52.070;8.596;2023-06-26T09:55:36;5.37;;;2.77;;
55069;SDS011;40967;52.070;8.596;2023-06-26T09:58:02;5.28;;;2.90;;
55069;SDS011;40967;52.070;8.596;2023-06-26T10:00:28;5.53;;;3.05;;
55069;SDS011;40967;52.070;8.596;2023-06-26T10:02:53;5.50;;;2.67;;
55069;SDS011;40967;52.070;8.596;2023-06-26T10:05:19;5.85;;;3.45;;
55069;SDS011;40967;52.070;8.596;2023-06-26T10:07:45;5.80;;;3.47;;
55069;SDS011;40967;52.070;8.596;2023-06-26T10:10:11;4.95;;;3.08;;
55069;SDS011;40967;52.070;8.596;2023-06-26T10:12:37;6.15;;;2.97;;
55069;SDS011;40967;52.070;8.596;2023-06-26T10:15:06;6.57;;;3.30;;
55069;SDS011;40967;52.070;8.596;2023-06-26T10:17:37;5.90;;;3.50;;
55069;SDS011;40967;52.070;8.596;2023-06-26T10:20:06;6.55;;;3.35;;
55069;SDS011;40967;52.070;8.596;2023-06-26T10:22:37;4.53;;;2.53;;
55069;SDS011;40967;52.070;8.596;2023-06-26T10:25:29;5.10;;;2.85;;
55069;SDS011;40967;52.070;8.596;2023-06-26T10:27:57;4.65;;;2.60;;
55069;SDS011;40967;52.070;8.596;2023-06-26T10:30:26;5.40;;;2.80;;
55069;SDS011;40967;52.070;8.596;2023-06-26T10:32:54;7.57;;;3.55;;
55069;SDS011;40967;52.070;8.596;2023-06-26T10:35:20;6.20;;;3.20;;
55069;SDS011;40967;52.070;8.596;2023-06-26T10:37:47;12.63;;;3.83;;
55069;SDS011;40967;52.070;8.596;2023-06-26T10:40:20;6.05;;;3.55;;
55069;SDS011;40967;52.070;8.596;2023-06-26T10:42:49;6.13;;;3.65;;
55069;SDS011;40967;52.070;8.596;2023-06-26T10:45:16;6.53;;;3.53;;
55069;SDS011;40967;52.070;8.596;2023-06-26T10:47:45;6.80;;;3.42;;
55069;SDS011;40967;52.070;8.596;2023-06-26T10:50:25;6.78;;;3.42;;
55069;SDS011;40967;52.070;8.596;2023-06-26T10:55:56;6.03;;;3.30;;
55069;SDS011;40967;52.070;8.596;2023-06-26T11:03:41;5.55;;;2.97;;
55069;SDS011;40967;52.070;8.596;2023-06-26T11:06:12;4.25;;;2.72;;
55069;SDS011;40967;52.070;8.596;2023-06-26T11:08:54;5.80;;;2.90;;
55069;SDS011;40967;52.070;8.596;2023-06-26T11:12:08;5.70;;;2.90;;
55069;SDS011;40967;52.070;8.596;2023-06-26T11:14:21;4.77;;;2.70;;
55069;SDS011;40967;52.070;8.596;2023-06-26T11:16:47;5.35;;;2.70;;
55069;SDS011;40967;52.070;8.596;2023-06-26T11:19:14;5.28;;;2.60;;
55069;SDS011;40967;52.070;8.596;2023-06-26T11:21:42;5.28;;;2.38;;
55069;SDS011;40967;52.070;8.596;2023-06-26T11:24:11;4.80;;;2.23;;
55069;SDS011;40967;52.070;8.596;2023-06-26T11:26:38;7.30;;;2.80;;
55069;SDS011;40967;52.070;8.596;2023-06-26T11:29:04;5.10;;;2.25;;
55069;SDS011;40967;52.070;8.596;2023-06-26T11:31:31;4.00;;;2.40;;
55069;SDS011;40967;52.070;8.596;2023-06-26T11:34:01;5.10;;;2.60;;
55069;SDS011;40967;52.070;8.596;2023-06-26T11:36:29;4.80;;;2.30;;
55069;SDS011;40967;52.070;8.596;2023-06-26T11:39:01;5.13;;;2.13;;
55069;SDS011;40967;52.070;8.596;2023-06-26T11:41:29;3.53;;;1.70;;
55069;SDS011;40967;52.070;8.596;2023-06-26T11:43:59;3.67;;;1.83;;
55069;SDS011;40967;52.070;8.596;2023-06-26T11:46:26;4.68;;;2.20;;
55069;SDS011;40967;52.070;8.596;2023-06-26T11:48:52;3.60;;;1.70;;
55069;SDS011;40967;52.070;8.596;2023-06-26T11:51:19;3.95;;;2.00;;
55069;SDS011;40967;52.070;8.596;2023-06-26T11:53:45;3.70;;;1.77;;
55069;SDS011;40967;52.070;8.596;2023-06-26T11:56:12;3.67;;;2.00;;
55069;SDS011;40967;52.070;8.596;2023-06-26T12:01:33;4.50;;;1.77;;
55069;SDS011;40967;52.070;8.596;2023-06-26T12:04:00;3.75;;;1.92;;
55069;SDS011;40967;52.070;8.596;2023-06-26T12:06:32;3.15;;;1.60;;
55069;SDS011;40967;52.070;8.596;2023-06-26T12:09:04;4.43;;;1.98;;
55069;SDS011;40967;52.070;8.596;2023-06-26T12:11:32;4.05;;;1.95;;
55069;SDS011;40967;52.070;8.596;2023-06-26T12:13:59;4.25;;;1.80;;
55069;SDS011;40967;52.070;8.596;2023-06-26T12:16:27;2.63;;;1.45;;
55069;SDS011;40967;52.070;8.596;2023-06-26T12:19:00;2.78;;;1.55;;
55069;SDS011;40967;52.070;8.596;2023-06-26T12:24:02;5.47;;;1.65;;
55069;SDS011;40967;52.070;8.596;2023-06-26T12:26:28;5.43;;;1.80;;
55069;SDS011;40967;52.070;8.596;2023-06-26T12:29:01;3.83;;;1.70;;
55069;SDS011;40967;52.070;8.596;2023-06-26T12:31:39;3.75;;;1.65;;
55069;SDS011;40967;52.070;8.596;2023-06-26T12:34:10;2.58;;;1.45;;
55069;SDS011;40967;52.070;8.596;2023-06-26T12:36:43;2.63;;;1.25;;
55069;SDS011;40967;52.070;8.596;2023-06-26T12:39:10;3.75;;;1.70;;
55069;SDS011;40967;52.070;8.596;2023-06-26T12:41:46;3.72;;;1.80;;
55069;SDS011;40967;52.070;8.596;2023-06-26T12:44:28;3.42;;;1.70;;
55069;SDS011;40967;52.070;8.596;2023-06-26T12:46:55;2.83;;;1.50;;
55069;SDS011;40967;52.070;8.596;2023-06-26T12:49:31;2.20;;;1.27;;
55069;SDS011;40967;52.070;8.596;2023-06-26T12:51:59;2.13;;;1.13;;
55069;SDS011;40967;52.070;8.596;2023-06-26T12:54:26;2.95;;;1.38;;
55069;SDS011;40967;52.070;8.596;2023-06-26T12:56:54;3.40;;;1.48;;
55069;SDS011;40967;52.070;8.596;2023-06-26T12:59:20;2.72;;;1.48;;
55069;SDS011;40967;52.070;8.596;2023-06-26T13:01:46;3.22;;;1.67;;
55069;SDS011;40967;52.070;8.596;2023-06-26T13:04:12;2.42;;;1.30;;
55069;SDS011;40967;52.070;8.596;2023-06-26T13:06:37;3.70;;;1.70;;
55069;SDS011;40967;52.070;8.596;2023-06-26T13:09:03;3.40;;;1.63;;
55069;SDS011;40967;52.070;8.596;2023-06-26T13:11:29;2.78;;;1.60;;
55069;SDS011;40967;52.070;8.596;2023-06-26T13:13:55;2.80;;;1.60;;
55069;SDS011;40967;52.070;8.596;2023-06-26T13:16:21;3.10;;;1.40;;
55069;SDS011;40967;52.070;8.596;2023-06-26T13:18:46;8.70;;;1.90;;
55069;SDS011;40967;52.070;8.596;2023-06-26T13:21:12;8.82;;;1.98;;
55069;SDS011;40967;52.070;8.596;2023-06-26T13:23:38;3.95;;;1.77;;
55069;SDS011;40967;52.070;8.596;2023-06-26T13:26:04;3.60;;;1.70;;
55069;SDS011;40967;52.070;8.596;2023-06-26T13:28:30;3.83;;;1.90;;
55069;SDS011;40967;52.070;8.596;2023-06-26T13:30:55;4.23;;;1.83;;
55069;SDS011;40967;52.070;8.596;2023-06-26T13:33:21;4.53;;;1.67;;
55069;SDS011;40967;52.070;8.596;2023-06-26T13:35:46;5.73;;;1.90;;
55069;SDS011;40967;52.070;8.596;2023-06-26T13:38:11;2.83;;;1.50;;
55069;SDS011;40967;52.070;8.596;2023-06-26T13:40:37;2.88;;;1.50;;
55069;SDS011;40967;52.070;8.596;2023-06-26T13:43:02;2.93;;;1.50;;
55069;SDS011;40967;52.070;8.596;2023-06-26T13:45:28;3.45;;;1.40;;
55069;SDS011;40967;52.070;8.596;2023-06-26T13:47:54;2.17;;;1.00;;
55069;SDS011;40967;52.070;8.596;2023-06-26T13:50:19;4.97;;;2.10;;
55069;SDS011;40967;52.070;8.596;2023-06-26T13:52:45;3.40;;;1.60;;
55069;SDS011;40967;52.070;8.596;2023-06-26T13:55:10;2.73;;;1.30;;
55069;SDS011;40967;52.070;8.596;2023-06-26T13:57:36;2.97;;;1.60;;
55069;SDS011;40967;52.070;8.596;2023-06-26T14:00:07;3.22;;;1.50;;
55069;SDS011;40967;52.070;8.596;2023-06-26T14:02:34;5.35;;;2.10;;
55069;SDS011;40967;52.070;8.596;2023-06-26T14:04:59;5.63;;;2.17;;
55069;SDS011;40967;52.070;8.596;2023-06-26T14:07:25;7.75;;;2.28;;
55069;SDS011;40967;52.070;8.596;2023-06-26T14:09:50;5.23;;;1.57;;
55069;SDS011;40967;52.070;8.596;2023-06-26T14:12:15;5.53;;;1.87;;
55069;SDS011;40967;52.070;8.596;2023-06-26T14:14:41;4.73;;;1.70;;
55069;SDS011;40967;52.070;8.596;2023-06-26T14:17:07;4.35;;;1.80;;
55069;SDS011;40967;52.070;8.596;2023-06-26T14:19:34;4.10;;;1.77;;
55069;SDS011;40967;52.070;8.596;2023-06-26T14:21:59;4.27;;;1.63;;
55069;SDS011;40967;52.070;8.596;2023-06-26T14:24:26;7.78;;;2.33;;
55069;SDS011;40967;52.070;8.596;2023-06-26T14:26:52;5.63;;;2.10;;
55069;SDS011;40967;52.070;8.596;2023-06-26T14:29:17;3.90;;;1.70;;
55069;SDS011;40967;52.070;8.596;2023-06-26T14:31:45;3.83;;;1.63;;
55069;SDS011;40967;52.070;8.596;2023-06-26T14:34:10;3.00;;;1.30;;
55069;SDS011;40967;52.070;8.596;2023-06-26T14:36:35;3.63;;;1.47;;
55069;SDS011;40967;52.070;8.596;2023-06-26T14:39:03;3.00;;;1.47;;
55069;SDS011;40967;52.070;8.596;2023-06-26T14:41:29;2.93;;;1.20;;
55069;SDS011;40967;52.070;8.596;2023-06-26T14:43:55;2.72;;;1.40;;
55069;SDS011;40967;52.070;8.596;2023-06-26T14:46:23;2.90;;;1.10;;
55069;SDS011;40967;52.070;8.596;2023-06-26T14:48:49;4.07;;;1.30;;
55069;SDS011;40967;52.070;8.596;2023-06-26T14:51:16;4.65;;;1.58;;
55069;SDS011;40967;52.070;8.596;2023-06-26T14:53:41;3.25;;;1.27;;
55069;SDS011;40967;52.070;8.596;2023-06-26T14:56:07;2.53;;;1.20;;
55069;SDS011;40967;52.070;8.596;2023-06-26T14:58:33;4.90;;;1.75;;
55069;SDS011;40967;52.070;8.596;2023-06-26T15:00:58;3.13;;;1.40;;
55069;SDS011;40967;52.070;8.596;2023-06-26T15:03:24;4.73;;;1.37;;
55069;SDS011;40967;52.070;8.596;2023-06-26T15:05:49;3.37;;;1.10;;
55069;SDS011;40967;52.070;8.596;2023-06-26T15:08:17;3.63;;;1.27;;
55069;SDS011;40967;52.070;8.596;2023-06-26T15:10:43;4.37;;;1.43;;